Time;durP1;ratioP1;P1;durP2;ratioP2;P2;SDS_P1;SDS_P2;PMS_P1;PMS_P2;Temp;Humidity;BMP_temperature;BMP_pressure;BME280_temperature;BME280_humidity;BME280_pressure;Samples;Min_cycle;Max_cycle;Signal;HPM_P1;HPM_P2
2022/06/27 00:01:23;;;;;;;12.35;11.35;;;22.90;71.60;;;;;;4907192;29;20163;-89
2022/06/27 00:03:49;;;;;;;12.90;11.70;;;22.90;71.60;;;;;;4923283;29;20257;-90
2022/06/27 00:06:14;;;;;;;13.05;11.93;;;22.90;71.60;;;;;;4907452;29;20257;-90
2022/06/27 00:08:41;;;;;;;13.48;12.27;;;22.90;71.70;;;;;;4907290;29;20257;-90
2022/06/27 00:11:12;;;;;;;12.80;11.65;;;22.90;71.70;;;;;;4907426;29;20655;-90
2022/06/27 00:13:41;;;;;;;12.40;11.30;;;22.80;71.60;;;;;;4923573;29;20170;-90
2022/06/27 00:16:13;;;;;;;13.23;12.02;;;22.90;71.80;;;;;;4922580;29;20198;-89
2022/06/27 00:18:40;;;;;;;13.15;11.85;;;22.80;71.70;;;;;;4923318;29;20170;-89
2022/06/27 00:21:07;;;;;;;13.02;11.93;;;22.80;71.80;;;;;;4906832;29;20163;-90
2022/06/27 00:23:33;;;;;;;13.55;12.35;;;22.80;71.90;;;;;;4939328;29;20213;-90
2022/06/27 00:25:59;;;;;;;13.35;12.23;;;22.80;71.90;;;;;;4922973;29;20265;-89
2022/06/27 00:28:26;;;;;;;13.07;11.88;;;22.80;71.90;;;;;;4907420;29;20221;-89
2022/06/27 00:30:54;;;;;;;13.18;12.07;;;22.80;72.00;;;;;;4938747;29;20265;-90
2022/06/27 00:33:20;;;;;;;12.90;11.77;;;22.80;71.90;;;;;;4907348;29;20244;-90
2022/06/27 00:35:50;;;;;;;12.85;11.75;;;22.80;72.00;;;;;;4938732;29;20245;-90
2022/06/27 00:38:18;;;;;;;13.25;12.05;;;22.80;71.90;;;;;;4908043;29;20511;-90
2022/06/27 00:40:44;;;;;;;12.75;11.55;;;22.70;71.80;;;;;;4907373;29;20161;-89
2022/06/27 00:43:12;;;;;;;13.23;12.02;;;22.80;71.90;;;;;;4907267;29;20190;-90
2022/06/27 00:45:38;;;;;;;13.40;12.20;;;22.80;72.00;;;;;;4922859;29;20186;-90
2022/06/27 00:48:05;;;;;;;13.27;12.07;;;22.70;72.00;;;;;;4906372;29;20236;-89
2022/06/27 00:50:39;;;;;;;13.15;11.95;;;22.80;72.10;;;;;;4906545;29;20204;-90
2022/06/27 00:53:10;;;;;;;13.32;12.13;;;22.80;72.10;;;;;;4922156;29;20177;-89
2022/06/27 00:55:37;;;;;;;13.23;12.07;;;22.70;72.00;;;;;;4922633;29;20209;-90
2022/06/27 00:58:04;;;;;;;13.30;12.10;;;22.70;72.00;;;;;;4907581;29;20517;-89
2022/06/27 01:00:31;;;;;;;13.70;12.50;;;22.70;72.00;;;;;;4906629;29;20644;-89
2022/06/27 01:03:01;;;;;;;13.40;12.20;;;22.70;72.10;;;;;;4922222;29;20170;-89
2022/06/27 01:05:27;;;;;;;13.02;11.93;;;22.70;72.00;;;;;;4937821;29;20166;-89
2022/06/27 01:07:54;;;;;;;13.57;12.38;;;22.70;72.10;;;;;;4906628;29;20176;-89
2022/06/27 01:10:24;;;;;;;13.43;12.13;;;22.70;72.20;;;;;;4906270;29;20193;-89
2022/06/27 01:12:50;;;;;;;14.27;12.98;;;22.70;72.10;;;;;;4922140;29;20225;-89
2022/06/27 01:15:17;;;;;;;13.05;11.88;;;22.70;72.10;;;;;;4907381;29;20194;-89
2022/06/27 01:17:46;;;;;;;13.73;12.52;;;22.70;72.20;;;;;;4907009;29;20557;-89
2022/06/27 01:20:12;;;;;;;12.65;11.55;;;22.70;72.10;;;;;;4938463;29;20261;-90
2022/06/27 01:22:40;;;;;;;13.18;12.05;;;22.70;72.10;;;;;;4906163;29;20197;-90
2022/06/27 01:25:08;;;;;;;14.02;12.73;;;22.70;72.10;;;;;;4906327;29;20173;-90
2022/06/27 01:27:34;;;;;;;13.68;12.48;;;22.70;72.10;;;;;;4921944;29;20713;-90
2022/06/27 01:30:02;;;;;;;13.82;12.55;;;22.70;72.20;;;;;;4906312;29;20208;-89
2022/06/27 01:32:33;;;;;;;13.43;12.23;;;22.70;72.20;;;;;;4921691;29;20228;-89
2022/06/27 01:34:59;;;;;;;13.27;12.13;;;22.70;72.10;;;;;;4921793;29;20209;-90
2022/06/27 01:37:26;;;;;;;13.38;12.18;;;22.70;72.30;;;;;;4906524;29;20170;-90
2022/06/27 01:39:54;;;;;;;12.98;11.77;;;22.70;72.30;;;;;;4906857;29;20166;-89
2022/06/27 01:42:21;;;;;;;13.85;12.65;;;22.60;72.20;;;;;;4907593;29;20625;-90
2022/06/27 01:44:50;;;;;;;13.85;12.65;;;22.60;72.20;;;;;;4921986;29;20201;-89
2022/06/27 01:47:18;;;;;;;14.15;12.85;;;22.60;72.30;;;;;;4906480;29;20173;-90
2022/06/27 01:49:49;;;;;;;14.05;12.75;;;22.60;72.30;;;;;;4905656;29;20686;-90
2022/06/27 01:52:15;;;;;;;14.02;12.73;;;22.60;72.30;;;;;;4937591;29;20162;-89
2022/06/27 01:54:43;;;;;;;13.63;12.43;;;22.70;72.30;;;;;;4921367;29;20194;-90
2022/06/27 01:57:16;;;;;;;13.25;12.07;;;22.60;72.30;;;;;;4906133;29;20176;-89
2022/06/27 01:59:44;;;;;;;14.15;12.85;;;22.60;72.30;;;;;;4925661;29;20490;-89
2022/06/27 02:02:10;;;;;;;13.48;12.27;;;22.60;72.30;;;;;;4909794;29;20181;-89
2022/06/27 02:04:37;;;;;;;14.20;12.90;;;22.60;72.40;;;;;;4925930;29;20200;-90
2022/06/27 02:07:03;;;;;;;13.43;12.23;;;22.60;72.40;;;;;;4909325;29;20637;-90
2022/06/27 02:09:29;;;;;;;13.82;12.63;;;22.60;72.30;;;;;;4925022;29;20174;-90
2022/06/27 02:12:18;;;;;;;13.18;11.98;;;22.60;72.30;;;;;;4909644;29;20174;-90
2022/06/27 02:14:50;;;;;;;14.15;12.88;;;22.60;72.40;;;;;;4927712;29;20205;-90
2022/06/27 02:17:18;;;;;;;13.65;12.43;;;22.60;72.40;;;;;;4910318;29;20260;-90
2022/06/27 02:19:45;;;;;;;13.75;12.55;;;22.60;72.50;;;;;;4909448;29;20540;-90
2022/06/27 02:22:13;;;;;;;13.73;12.45;;;22.60;72.50;;;;;;4909830;29;20174;-90
2022/06/27 02:24:40;;;;;;;13.23;12.02;;;22.60;72.50;;;;;;4909845;29;20265;-89
2022/06/27 02:27:09;;;;;;;13.60;12.40;;;22.60;72.50;;;;;;4925199;29;20621;-90
2022/06/27 02:29:42;;;;;;;14.07;12.77;;;22.60;72.50;;;;;;4941074;29;20226;-90
2022/06/27 02:32:09;;;;;;;13.50;12.30;;;22.50;72.50;;;;;;4941125;29;20163;-90
2022/06/27 02:34:39;;;;;;;13.45;12.35;;;22.50;72.50;;;;;;4909712;29;20607;-91
2022/06/27 02:37:05;;;;;;;13.07;11.88;;;22.50;72.50;;;;;;4941063;29;20197;-90
2022/06/27 02:39:33;;;;;;;13.35;12.15;;;22.50;72.50;;;;;;4909129;29;20170;-89
2022/06/27 02:42:03;;;;;;;12.70;11.60;;;22.60;72.50;;;;;;4910203;29;20584;-89
2022/06/27 02:44:32;;;;;;;14.05;12.80;;;22.50;72.40;;;;;;4910398;29;20172;-90
2022/06/27 02:47:00;;;;;;;13.55;12.25;;;22.60;72.50;;;;;;4925168;29;20253;-90
2022/06/27 02:49:26;;;;;;;13.50;12.30;;;22.50;72.50;;;;;;4925043;29;20294;-88
2022/06/27 02:52:13;;;;;;;13.55;12.35;;;22.50;72.50;;;;;;4925621;29;20197;-88
2022/06/27 02:54:50;;;;;;;13.50;12.30;;;22.60;72.50;;;;;;4927307;29;20216;-89
2022/06/27 02:57:25;;;;;;;13.48;12.27;;;22.50;72.50;;;;;;4941788;29;20154;-89
2022/06/27 02:59:51;;;;;;;13.40;12.20;;;22.60;72.50;;;;;;4925990;29;20154;-88
2022/06/27 03:02:17;;;;;;;13.63;12.43;;;22.50;72.50;;;;;;4910106;29;20212;-88
2022/06/27 03:04:43;;;;;;;13.45;12.23;;;22.50;72.50;;;;;;4909410;29;20273;-89
2022/06/27 03:07:10;;;;;;;13.45;12.25;;;22.60;72.50;;;;;;4926128;29;20166;-88
2022/06/27 03:09:39;;;;;;;13.80;12.60;;;22.50;72.50;;;;;;4909777;29;20205;-89
2022/06/27 03:12:06;;;;;;;13.30;12.10;;;22.50;72.50;;;;;;4910695;29;20632;-88
2022/06/27 03:14:34;;;;;;;13.60;12.40;;;22.50;72.50;;;;;;4910533;29;20533;-90
2022/06/27 03:16:59;;;;;;;13.15;12.02;;;22.60;72.50;;;;;;4910237;29;20354;-90
2022/06/27 03:19:26;;;;;;;14.30;13.00;;;22.50;72.50;;;;;;4926157;29;20269;-89
2022/06/27 03:21:52;;;;;;;13.70;12.40;;;22.50;72.50;;;;;;4925647;29;20304;-89
2022/06/27 03:24:41;;;;;;;14.27;12.98;;;22.60;72.50;;;;;;4926005;29;20194;-90
2022/06/27 03:27:10;;;;;;;14.18;12.88;;;22.50;72.50;;;;;;4920315;29;20181;-89
2022/06/27 03:29:38;;;;;;;13.55;12.35;;;22.50;72.40;;;;;;4942804;29;20175;-90
2022/06/27 03:32:06;;;;;;;13.52;12.40;;;22.50;72.40;;;;;;4926860;29;20249;-89
2022/06/27 03:34:33;;;;;;;13.90;12.68;;;22.50;72.40;;;;;;4926006;29;20158;-89
2022/06/27 03:37:00;;;;;;;14.00;12.75;;;22.50;72.40;;;;;;4910723;29;20231;-89
2022/06/27 03:39:27;;;;;;;13.23;12.02;;;22.50;72.30;;;;;;4910987;29;20673;-89
2022/06/27 03:41:53;;;;;;;14.05;12.75;;;22.50;72.30;;;;;;4910232;29;20722;-89
2022/06/27 03:44:19;;;;;;;13.98;12.65;;;22.50;72.30;;;;;;4910756;29;20210;-89
2022/06/27 03:46:46;;;;;;;13.75;12.55;;;22.60;72.20;;;;;;4910282;29;20181;-89
2022/06/27 03:51:53;;;;;;;13.68;12.48;;;22.50;72.30;;;;;;4928413;29;20505;-90
2022/06/27 03:54:20;;;;;;;13.43;12.23;;;22.50;72.20;;;;;;4910108;29;20275;-90
2022/06/27 03:56:48;;;;;;;13.60;12.40;;;22.50;72.20;;;;;;4909411;29;20162;-90
2022/06/27 03:59:15;;;;;;;13.27;12.10;;;22.50;72.10;;;;;;4910092;29;20261;-90
2022/06/27 04:01:42;;;;;;;13.18;11.98;;;22.50;72.10;;;;;;4910571;29;20166;-89
2022/06/27 04:04:12;;;;;;;13.60;12.32;;;22.60;72.10;;;;;;4913148;29;20174;-90
2022/06/27 04:06:43;;;;;;;13.45;12.25;;;22.60;72.10;;;;;;4943515;29;20257;-90
2022/06/27 04:09:11;;;;;;;12.90;11.70;;;22.60;72.10;;;;;;4928356;29;20225;-90
2022/06/27 04:11:47;;;;;;;13.70;12.50;;;22.60;72.10;;;;;;4913575;29;20170;-90
2022/06/27 04:14:13;;;;;;;13.38;12.20;;;22.60;72.00;;;;;;4929321;29;20216;-89
2022/06/27 04:16:40;;;;;;;13.35;12.20;;;22.60;71.90;;;;;;4913669;29;20198;-89
2022/06/27 04:19:07;;;;;;;12.88;11.68;;;22.60;71.90;;;;;;4912003;29;20508;-89
2022/06/27 04:21:36;;;;;;;13.25;12.05;;;22.60;71.90;;;;;;4925366;29;20163;-89
2022/06/27 04:24:03;;;;;;;12.73;11.63;;;22.60;71.90;;;;;;4942277;29;20166;-88
2022/06/27 04:26:29;;;;;;;13.30;12.10;;;22.60;71.80;;;;;;4910395;29;20169;-89
2022/06/27 04:29:00;;;;;;;13.02;11.82;;;22.70;71.80;;;;;;4910708;29;20498;-89
2022/06/27 04:31:27;;;;;;;13.85;12.65;;;22.60;71.80;;;;;;4926680;29;20170;-88
2022/06/27 04:33:54;;;;;;;12.95;11.75;;;22.60;71.70;;;;;;4910840;29;20204;-89
2022/06/27 04:36:23;;;;;;;13.48;12.27;;;22.60;71.80;;;;;;4910944;29;20197;-89
2022/06/27 04:38:49;;;;;;;13.65;12.40;;;22.70;71.70;;;;;;4911043;29;20182;-89
2022/06/27 04:41:16;;;;;;;12.82;11.63;;;22.70;71.60;;;;;;4911020;29;20554;-89
2022/06/27 04:43:43;;;;;;;13.30;12.10;;;22.70;71.60;;;;;;4911095;29;20162;-89
2022/06/27 04:46:11;;;;;;;13.43;12.23;;;22.70;71.40;;;;;;4911194;29;20181;-89
2022/06/27 04:48:37;;;;;;;13.80;12.57;;;22.70;71.50;;;;;;4910713;29;20229;-89
2022/06/27 04:51:03;;;;;;;12.80;11.70;;;22.70;71.40;;;;;;4910907;29;20185;-89
2022/06/27 04:53:30;;;;;;;12.77;11.68;;;22.70;71.40;;;;;;4911132;29;20174;-89
2022/06/27 04:56:01;;;;;;;13.20;12.00;;;22.70;71.20;;;;;;4926222;29;20189;-89
2022/06/27 04:58:27;;;;;;;12.98;11.88;;;22.80;71.00;;;;;;4927686;29;20173;-89
2022/06/27 05:00:55;;;;;;;13.10;11.90;;;22.80;71.80;;;;;;4914885;29;20174;-89
2022/06/27 05:03:23;;;;;;;13.38;12.18;;;22.90;70.70;;;;;;4916999;29;20618;-89
2022/06/27 05:05:50;;;;;;;13.52;12.32;;;22.90;70.60;;;;;;4917118;29;20193;-89
2022/06/27 05:08:17;;;;;;;13.05;11.95;;;22.90;70.80;;;;;;4931170;29;20533;-89
2022/06/27 05:10:43;;;;;;;13.13;11.93;;;22.80;70.80;;;;;;4915693;29;20174;-89
2022/06/27 05:13:15;;;;;;;14.00;12.70;;;22.90;70.70;;;;;;4947345;29;20168;-89
2022/06/27 05:15:42;;;;;;;13.40;12.30;;;22.80;70.80;;;;;;4913161;29;20186;-89
2022/06/27 05:18:15;;;;;;;12.73;11.63;;;22.90;70.80;;;;;;4910206;29;20185;-89
2022/06/27 05:20:47;;;;;;;12.95;11.85;;;22.90;71.60;;;;;;4940360;29;20492;-90
2022/06/27 05:23:13;;;;;;;12.80;11.70;;;22.90;70.50;;;;;;4923592;29;20162;-89
2022/06/27 05:25:43;;;;;;;12.20;11.10;;;22.80;70.80;;;;;;4923244;29;20538;-89
2022/06/27 05:28:10;;;;;;;12.65;11.55;;;22.80;70.90;;;;;;4923369;29;20264;-89
2022/06/27 05:30:38;;;;;;;12.90;11.70;;;22.80;70.90;;;;;;4906255;29;20185;-90
2022/06/27 05:33:05;;;;;;;12.75;11.65;;;22.80;70.80;;;;;;4907064;29;20170;-90
2022/06/27 05:35:31;;;;;;;12.60;11.50;;;22.80;70.90;;;;;;4906744;29;20190;-90
2022/06/27 05:37:59;;;;;;;12.57;11.48;;;22.80;70.80;;;;;;4922045;29;20169;-90
2022/06/27 05:40:25;;;;;;;12.80;11.70;;;22.80;70.90;;;;;;4923094;29;20161;-90
2022/06/27 05:42:53;;;;;;;11.55;10.55;;;22.90;70.70;;;;;;4906448;29;20194;-90
2022/06/27 05:45:24;;;;;;;12.75;11.65;;;22.90;70.30;;;;;;4906105;29;20257;-90
2022/06/27 05:47:57;;;;;;;12.93;11.82;;;22.90;70.20;;;;;;4923358;29;20300;-90
2022/06/27 05:50:30;;;;;;;12.32;11.23;;;22.90;70.30;;;;;;4907328;29;20178;-90
2022/06/27 05:52:59;;;;;;;10.90;9.90;;;22.90;70.30;;;;;;4923572;29;20696;-90
2022/06/27 05:55:28;;;;;;;12.13;11.10;;;22.90;70.40;;;;;;4906932;29;20206;-90
2022/06/27 05:57:57;;;;;;;11.73;10.63;;;23.00;70.10;;;;;;4907015;29;20178;-90
2022/06/27 06:00:25;;;;;;;11.25;10.25;;;23.00;70.00;;;;;;4906779;29;20648;-89
2022/06/27 06:03:04;;;;;;;12.40;11.30;;;23.10;69.80;;;;;;4905986;29;20174;-91
2022/06/27 06:05:32;;;;;;;12.45;11.35;;;23.00;69.80;;;;;;4922911;29;20204;-90
2022/06/27 06:08:02;;;;;;;11.20;10.20;;;23.00;69.80;;;;;;4911358;29;20178;-89
2022/06/27 06:10:30;;;;;;;11.25;10.25;;;23.00;69.60;;;;;;4910370;29;20201;-89
2022/06/27 06:13:01;;;;;;;12.20;11.10;;;23.10;69.70;;;;;;4908712;29;20234;-90
2022/06/27 06:15:39;;;;;;;11.65;10.55;;;23.00;69.60;;;;;;4923245;29;20206;-90
2022/06/27 06:18:08;;;;;;;11.10;10.18;;;23.00;69.70;;;;;;4937934;29;20592;-88
2022/06/27 06:20:35;;;;;;;12.45;11.25;;;23.10;69.50;;;;;;4908800;29;20212;-92
2022/06/27 06:23:04;;;;;;;11.80;10.80;;;23.00;69.60;;;;;;4935923;29;20174;-91
2022/06/27 06:25:33;;;;;;;12.45;11.35;;;23.10;69.50;;;;;;4935805;29;20179;-91
2022/06/27 06:28:14;;;;;;;11.35;10.35;;;23.20;69.20;;;;;;4904933;29;20174;-91
2022/06/27 06:30:42;;;;;;;10.52;9.63;;;23.10;69.30;;;;;;4905643;29;20309;-90
2022/06/27 06:33:08;;;;;;;11.93;10.93;;;23.20;69.40;;;;;;4906084;29;20196;-91
2022/06/27 06:35:35;;;;;;;11.90;10.82;;;23.20;69.30;;;;;;4909525;29;20210;-90
2022/06/27 06:38:09;;;;;;;11.60;10.60;;;23.20;69.40;;;;;;4907481;29;20182;-90
2022/06/27 06:40:34;;;;;;;12.02;10.95;;;23.20;69.30;;;;;;4884109;29;20188;-90
2022/06/27 06:43:04;;;;;;;11.38;10.38;;;23.20;69.10;;;;;;4899193;29;20191;-90
2022/06/27 06:45:33;;;;;;;11.77;10.68;;;23.20;69.40;;;;;;4867858;29;20183;-88
2022/06/27 06:47:59;;;;;;;11.93;10.85;;;23.20;69.50;;;;;;4848590;29;20240;-89
2022/06/27 06:50:25;;;;;;;11.55;10.55;;;23.30;69.40;;;;;;4884696;29;20189;-89
2022/06/27 06:52:51;;;;;;;11.63;10.52;;;23.30;68.90;;;;;;4885240;29;20264;-89
2022/06/27 06:55:20;;;;;;;10.77;9.88;;;23.20;68.90;;;;;;4881334;29;20691;-87
2022/06/27 06:57:49;;;;;;;12.82;11.63;;;23.30;69.00;;;;;;4865923;29;20256;-91
2022/06/27 07:00:30;;;;;;;11.45;10.45;;;23.10;69.10;;;;;;4880907;29;20185;-94
2022/06/27 07:02:58;;;;;;;11.43;10.43;;;23.20;69.00;;;;;;4900122;29;20187;-88
2022/06/27 07:05:27;;;;;;;11.07;10.10;;;23.30;68.90;;;;;;4882661;29;20286;-91
2022/06/27 07:08:05;;;;;;;11.38;10.40;;;23.30;68.80;;;;;;4886365;29;20199;-89
2022/06/27 07:10:31;;;;;;;11.93;10.93;;;23.20;68.90;;;;;;4893559;29;20239;-90
2022/06/27 07:13:05;;;;;;;11.55;10.57;;;23.20;69.00;;;;;;4910626;29;20187;-90
2022/06/27 07:15:45;;;;;;;11.40;10.40;;;23.20;69.10;;;;;;4926714;29;20206;-91
2022/06/27 07:18:35;;;;;;;11.20;10.25;;;23.20;69.10;;;;;;4881159;29;20198;-91
2022/06/27 07:24:26;;;;;;;11.70;10.68;;;23.30;68.90;;;;;;4851136;29;20192;-91
2022/06/27 07:27:03;;;;;;;11.68;10.68;;;23.20;68.80;;;;;;4837092;29;20192;-89
2022/06/27 07:30:10;;;;;;;11.77;10.65;;;23.30;68.90;;;;;;4836033;29;20188;-89
2022/06/27 07:33:50;;;;;;;11.90;10.27;;;23.20;69.00;;;;;;4813058;29;20213;-91
2022/06/27 07:35:44;;;;;;;11.25;10.25;;;23.40;68.70;;;;;;4799971;29;20248;-90
2022/06/27 07:38:13;;;;;;;11.73;10.70;;;23.40;68.30;;;;;;4805900;29;20201;-89
2022/06/27 07:40:42;;;;;;;10.73;9.82;;;23.50;68.10;;;;;;4805852;29;20257;-91
2022/06/27 07:43:24;;;;;;;11.48;10.38;;;23.50;68.10;;;;;;4829136;29;20186;-90
2022/06/27 07:46:17;;;;;;;11.48;10.35;;;23.50;68.20;;;;;;4849268;29;20197;-91
2022/06/27 07:48:50;;;;;;;10.95;10.00;;;23.40;68.00;;;;;;4832980;29;20245;-88
2022/06/27 07:51:21;;;;;;;10.63;9.73;;;23.40;68.10;;;;;;4816104;29;20191;-89
2022/06/27 07:53:51;;;;;;;11.43;10.35;;;23.40;68.30;;;;;;4795778;30;20228;-90
2022/06/27 07:56:34;;;;;;;;;;;;;;;;;;;;;
2022/06/27 07:59:10;;;;;;;10.70;9.80;;;23.40;68.30;;;;;;4805352;29;20255;-89
2022/06/27 08:01:39;;;;;;;12.02;10.70;;;23.50;67.80;;;;;;4801220;29;20215;-91
2022/06/27 08:04:14;;;;;;;10.98;10.05;;;23.50;68.00;;;;;;4832411;29;20281;-92
2022/06/27 08:06:49;;;;;;;11.35;10.25;;;23.50;67.80;;;;;;4828922;29;20189;-91
2022/06/27 08:09:42;;;;;;;10.00;9.20;;;23.50;67.40;;;;;;4792769;29;20191;-91
2022/06/27 08:12:16;;;;;;;10.82;9.70;;;23.60;67.40;;;;;;4773052;30;20618;-90
2022/06/27 08:14:46;;;;;;;11.50;10.40;;;23.60;67.20;;;;;;4734189;30;20317;-90
2022/06/27 08:17:50;;;;;;;11.38;10.30;;;23.60;67.30;;;;;;4727331;30;20221;-89
2022/06/27 08:20:37;;;;;;;18.23;10.73;;;23.60;67.00;;;;;;4678285;30;20286;-89
2022/06/27 08:23:11;;;;;;;19.67;10.07;;;23.50;67.70;;;;;;4709547;30;20201;-90
2022/06/27 08:25:59;;;;;;;17.05;10.63;;;23.40;67.30;;;;;;4691618;30;20203;-91
2022/06/27 08:28:42;;;;;;;11.43;10.05;;;23.50;67.40;;;;;;4662069;30;20206;-91
2022/06/27 08:31:24;;;;;;;11.90;10.55;;;23.50;67.20;;;;;;4655045;30;20200;-90
2022/06/27 08:34:21;;;;;;;10.68;9.68;;;23.60;66.90;;;;;;4624226;31;20197;-91
2022/06/27 08:37:17;;;;;;;11.20;10.13;;;23.60;66.80;;;;;;4591595;31;20234;-89
2022/06/27 08:40:15;;;;;;;10.93;9.93;;;23.60;66.90;;;;;;4592450;31;20684;-89
2022/06/27 08:42:55;;;;;;;10.60;9.68;;;23.70;66.70;;;;;;4609029;31;20248;-90
2022/06/27 08:45:31;;;;;;;10.63;9.63;;;23.60;66.70;;;;;;4586019;31;20230;-89
2022/06/27 08:48:23;;;;;;;11.00;10.00;;;23.60;66.90;;;;;;4611943;31;20347;-89
2022/06/27 08:50:59;;;;;;;12.48;9.75;;;23.60;67.10;;;;;;4654305;30;20290;-89
2022/06/27 08:53:48;;;;;;;10.48;9.38;;;23.60;66.40;;;;;;4684884;30;20296;-89
2022/06/27 08:56:51;;;;;;;10.52;9.60;;;23.60;66.80;;;;;;4693612;30;20250;-88
2022/06/27 09:00:25;;;;;;;10.85;9.77;;;23.70;66.50;;;;;;4693686;30;20247;-90
2022/06/27 09:09:50;;;;;;;10.95;9.60;;;23.60;66.70;;;;;;4651091;30;20196;-91
2022/06/27 09:16:03;;;;;;;10.82;9.73;;;23.70;66.90;;;;;;4624493;30;20308;-91
2022/06/27 09:18:56;;;;;;;10.52;9.52;;;23.60;66.70;;;;;;4603428;30;20648;-92
2022/06/27 09:24:56;;;;;;;;;;;;;;;;;;;;;
2022/06/27 09:27:17;;;;;;;10.70;9.70;;;23.70;66.30;;;;;;4573718;31;20622;-91
2022/06/27 09:29:46;;;;;;;10.30;9.32;;;23.70;66.30;;;;;;4569134;31;20201;-91
2022/06/27 09:32:13;;;;;;;10.30;9.30;;;23.70;66.10;;;;;;4527240;31;20645;-91
2022/06/27 09:34:40;;;;;;;10.88;9.73;;;23.70;66.40;;;;;;4540631;31;20199;-91
2022/06/27 09:37:12;;;;;;;10.43;9.52;;;23.70;66.50;;;;;;4529400;31;20308;-91
2022/06/27 09:39:51;;;;;;;;;;;;;;;;;;;;;
2022/06/27 09:42:17;;;;;;;10.88;9.82;;;23.70;66.90;;;;;;4652930;30;20211;-89
2022/06/27 09:44:54;;;;;;;10.98;9.98;;;23.70;66.30;;;;;;4697817;30;20611;-91
2022/06/27 09:47:37;;;;;;;;;;;;;;;;;;;;;
2022/06/27 09:50:09;;;;;;;10.38;9.48;;;23.60;66.60;;;;;;4697792;30;20209;-87
2022/06/27 09:52:35;;;;;;;11.02;10.02;;;23.70;66.10;;;;;;4753860;30;20196;-88
2022/06/27 09:55:02;;;;;;;10.20;9.27;;;23.80;66.00;;;;;;4779275;30;20219;-92
2022/06/27 09:57:33;;;;;;;10.68;9.77;;;23.90;65.50;;;;;;4765787;29;20229;-88
2022/06/27 10:00:00;;;;;;;10.52;9.55;;;23.80;65.50;;;;;;4787464;29;20253;-89
2022/06/27 10:02:29;;;;;;;10.75;9.75;;;23.80;65.90;;;;;;4871429;29;20190;-87
2022/06/27 10:05:00;;;;;;;10.95;9.95;;;23.70;66.90;;;;;;4868113;29;20638;-91
2022/06/27 10:07:31;;;;;;;11.00;10.00;;;23.60;66.50;;;;;;4883713;29;20657;-91
2022/06/27 10:10:21;;;;;;;10.40;9.45;;;23.80;65.50;;;;;;4833485;29;20196;-90
2022/06/27 10:13:05;;;;;;;10.40;9.50;;;23.80;65.50;;;;;;4854691;29;20282;-89
2022/06/27 10:15:36;;;;;;;10.20;9.30;;;23.90;65.60;;;;;;4871195;29;20630;-90
2022/06/27 10:18:11;;;;;;;10.88;9.77;;;23.90;65.60;;;;;;4840915;29;20196;-89
2022/06/27 10:20:38;;;;;;;10.60;9.70;;;23.90;65.80;;;;;;4853619;29;20242;-89
2022/06/27 10:23:06;;;;;;;10.60;9.70;;;23.90;65.80;;;;;;4840101;29;20216;-90
2022/06/27 10:26:02;;;;;;;10.25;9.38;;;23.90;65.50;;;;;;4856903;29;20204;-90
2022/06/27 10:28:36;;;;;;;10.82;9.88;;;24.00;65.10;;;;;;4837282;29;20673;-91
2022/06/27 10:31:11;;;;;;;10.68;9.70;;;24.00;65.30;;;;;;4819833;29;20230;-91
2022/06/27 10:33:37;;;;;;;10.40;9.50;;;24.00;65.40;;;;;;4833392;29;20202;-91
2022/06/27 10:38:50;;;;;;;10.48;9.40;;;24.00;66.40;;;;;;4832356;29;20194;-89
2022/06/27 10:41:39;;;;;;;10.63;9.73;;;23.80;66.30;;;;;;4852419;29;20180;-88
2022/06/27 10:44:26;;;;;;;11.05;10.10;;;24.00;66.00;;;;;;4850448;29;20744;-90
2022/06/27 10:46:52;;;;;;;10.98;9.90;;;24.00;65.60;;;;;;4887688;29;20554;-89
2022/06/27 10:49:20;;;;;;;10.90;9.80;;;24.20;64.90;;;;;;4868381;29;20227;-90
2022/06/27 10:51:46;;;;;;;10.50;9.60;;;24.20;65.00;;;;;;4868295;29;20184;-88
2022/06/27 10:54:12;;;;;;;10.75;9.85;;;24.20;64.90;;;;;;4899211;29;20230;-89
2022/06/27 10:56:44;;;;;;;10.60;9.55;;;24.30;64.80;;;;;;4885250;29;20234;-91
2022/06/27 10:59:51;;;;;;;10.55;9.57;;;24.20;64.80;;;;;;4868427;29;20634;-89
2022/06/27 11:02:21;;;;;;;11.45;10.35;;;24.20;65.20;;;;;;4857000;29;20185;-91
2022/06/27 11:04:48;;;;;;;11.02;10.02;;;24.30;64.70;;;;;;4852040;29;20188;-91
2022/06/27 11:07:29;;;;;;;11.73;10.70;;;24.20;65.00;;;;;;4835229;29;20244;-90
2022/06/27 11:10:02;;;;;;;11.55;10.07;;;24.10;65.00;;;;;;4866986;29;20639;-90
2022/06/27 11:12:29;;;;;;;11.20;10.20;;;24.10;65.20;;;;;;4835461;29;20223;-90
2022/06/27 11:14:59;;;;;;;10.50;9.55;;;24.10;65.30;;;;;;4835013;29;20299;-91
2022/06/27 11:17:30;;;;;;;10.80;9.82;;;24.00;65.50;;;;;;4850875;29;20159;-89
2022/06/27 11:20:09;;;;;;;10.32;9.30;;;24.00;65.30;;;;;;4849915;29;20632;-88
2022/06/27 11:22:38;;;;;;;11.38;10.38;;;24.10;65.00;;;;;;4851140;29;20172;-90
2022/06/27 11:25:21;;;;;;;10.88;9.88;;;24.10;64.90;;;;;;4851209;29;20708;-92
2022/06/27 11:28:08;;;;;;;;;;;;;;;;;;;;;
2022/06/27 11:33:15;;;;;;;11.07;9.98;;;24.10;65.20;;;;;;4850274;29;20188;-90
2022/06/27 11:35:49;;;;;;;11.23;10.23;;;24.10;65.00;;;;;;4831799;29;20227;-90
2022/06/27 11:38:25;;;;;;;11.25;10.25;;;24.10;64.80;;;;;;4826999;29;20192;-89
2022/06/27 11:41:30;;;;;;;11.18;10.07;;;24.10;65.00;;;;;;4831564;29;20196;-90
2022/06/27 11:44:29;;;;;;;11.07;10.07;;;24.10;64.80;;;;;;4826655;29;20196;-91
2022/06/27 11:47:09;;;;;;;11.77;10.18;;;24.10;65.00;;;;;;4793052;30;20187;-90
2022/06/27 11:49:39;;;;;;;11.18;10.00;;;24.20;65.70;;;;;;4797821;29;20225;-88
2022/06/27 11:52:24;;;;;;;11.27;10.27;;;24.20;64.70;;;;;;4813091;29;20190;-90
2022/06/27 11:55:28;;;;;;;11.48;10.38;;;24.20;64.70;;;;;;4798150;29;20216;-91
2022/06/27 11:58:21;;;;;;;13.93;10.40;;;24.20;65.00;;;;;;4809982;29;20619;-90
2022/06/27 12:00:48;;;;;;;11.25;10.10;;;24.20;65.30;;;;;;4807411;29;20188;-90
2022/06/27 12:03:38;;;;;;;11.88;10.55;;;24.20;65.20;;;;;;4812530;29;20185;-90
2022/06/27 12:06:13;;;;;;;12.43;10.10;;;24.30;64.90;;;;;;4829268;29;20674;-91
2022/06/27 12:08:59;;;;;;;12.65;10.27;;;24.30;65.00;;;;;;4815556;29;20271;-90
2022/06/27 12:11:32;;;;;;;11.35;10.15;;;24.30;64.80;;;;;;4808940;29;20721;-88
2022/06/27 12:13:59;;;;;;;13.88;10.50;;;24.40;64.50;;;;;;4807550;29;20280;-87
2022/06/27 12:16:28;;;;;;;13.90;10.55;;;24.40;64.30;;;;;;4855340;29;20236;-89
2022/06/27 12:19:00;;;;;;;11.35;10.27;;;24.30;64.30;;;;;;4821891;29;20198;-86
2022/06/27 12:49:22;;;;;;;16.48;10.43;;;24.50;63.80;;;;;;4770246;29;20231;-92
2022/06/27 12:52:56;;;;;;;;;;;;;;;;;;;;;
2022/06/27 12:55:26;;;;;;;17.10;10.60;;;24.50;64.20;;;;;;4777900;30;20295;-91
2022/06/27 13:05:48;;;;;;;;;;;;;;;;;;;;;
2022/06/27 13:09:34;;;;;;;13.82;10.40;;;24.50;63.80;;;;;;4742355;30;20788;-90
2022/06/27 13:22:28;;;;;;;11.75;10.13;;;24.50;63.80;;;;;;4709698;30;20214;-93
2022/06/27 13:25:34;;;;;;;12.35;10.70;;;24.50;64.00;;;;;;4757994;30;20278;-91
2022/06/27 13:28:08;;;;;;;14.88;10.88;;;24.60;64.00;;;;;;4754127;29;20232;-89
2022/06/27 13:30:39;;;;;;;12.07;10.25;;;24.50;64.00;;;;;;4788920;29;20265;-88
2022/06/27 13:36:52;;;;;;;11.55;10.32;;;24.50;64.00;;;;;;4727096;30;20217;-89
2022/06/27 13:39:24;;;;;;;11.25;10.00;;;24.50;64.00;;;;;;4711802;30;20245;-89
2022/06/27 13:42:08;;;;;;;11.85;10.68;;;24.40;64.10;;;;;;4690986;30;20191;-89
2022/06/27 13:44:57;;;;;;;14.48;10.73;;;24.40;64.40;;;;;;4675235;30;20220;-90
2022/06/27 13:47:32;;;;;;;12.98;10.43;;;24.40;64.50;;;;;;4665696;30;20256;-89
2022/06/27 13:50:03;;;;;;;14.63;11.15;;;24.50;64.20;;;;;;4674045;30;20238;-90
2022/06/27 13:52:40;;;;;;;11.90;10.70;;;24.40;64.20;;;;;;4661418;30;20239;-90
2022/06/27 13:55:12;;;;;;;11.45;10.15;;;24.40;64.50;;;;;;4690579;30;20239;-89
2022/06/27 13:57:42;;;;;;;11.38;10.25;;;24.30;64.60;;;;;;4681056;30;20192;-91
2022/06/27 14:00:12;;;;;;;15.38;10.73;;;24.30;64.60;;;;;;4675752;30;20644;-90
2022/06/27 14:02:41;;;;;;;11.80;10.60;;;24.30;64.70;;;;;;4676051;30;20314;-91
2022/06/27 14:05:07;;;;;;;11.77;10.57;;;24.40;64.50;;;;;;4690039;30;20267;-90
2022/06/27 14:07:39;;;;;;;12.70;10.65;;;24.40;64.40;;;;;;4689302;30;20234;-88
2022/06/27 14:10:16;;;;;;;15.48;11.07;;;24.40;64.30;;;;;;4689046;30;20627;-90
2022/06/27 14:12:43;;;;;;;11.63;10.52;;;24.40;64.30;;;;;;4763391;30;20294;-89
2022/06/27 14:15:09;;;;;;;12.65;10.40;;;24.50;64.10;;;;;;4796828;29;20211;-90
2022/06/27 14:17:39;;;;;;;12.70;11.02;;;24.40;64.30;;;;;;4838668;29;20278;-90
2022/06/27 14:20:09;;;;;;;13.80;10.50;;;24.50;64.40;;;;;;4833979;29;20668;-90
2022/06/27 14:22:35;;;;;;;11.55;10.40;;;24.50;64.10;;;;;;4817949;29;20189;-90